Robert Lee, Texas
Current Conditions -  °F | °C
As of 10:51 PM on Friday 24 Oct 2014 (Local Time) from KSJT Reporting Station
Clear Clear  
Wind Chill: 70°   Ceiling: Unl
Heat Index: 70°   Visibility: 10mi
Dew Point: 55°   Wind: 9mph
Humidity: 59%   Direction: 190°S
Pressure: 30.14"   Gusts: NA
Location:  31.89°N, 100.48°W
Report Text: KSJT 250351Z AUTO 19008KT 10SM CLR 21/13 A3014 RMK AO2 SLP188 T02110128
Loading
Personal Weather Stations






























Interactive Weather Map
Tropical Storm Tracking
New forecast layout! Learn more

10-Day Weather Forecast

Advertisements
Track Severe Weather on mobile